createdAt,value
2018-08-24T00:01:58.970Z,11.00
2018-08-24T00:04:27.079Z,12.97
2018-08-24T00:06:55.183Z,11.13
2018-08-24T00:09:25.300Z,11.20
2018-08-24T00:11:53.402Z,11.73
2018-08-24T00:14:21.506Z,11.67
2018-08-24T00:16:49.614Z,13.20
2018-08-24T00:19:18.215Z,11.60
2018-08-24T00:21:47.370Z,12.40
2018-08-24T00:24:16.054Z,11.30
2018-08-24T00:26:44.154Z,12.60
2018-08-24T00:29:12.258Z,11.47
2018-08-24T00:31:40.790Z,13.00
2018-08-24T00:34:08.907Z,12.73
2018-08-24T00:36:37.016Z,11.80
2018-08-24T00:39:07.070Z,12.37
2018-08-24T00:41:35.235Z,11.10
2018-08-24T00:44:03.331Z,10.90
2018-08-24T00:46:31.428Z,11.73
2018-08-24T00:48:59.539Z,11.60
2018-08-24T00:51:27.639Z,12.13
2018-08-24T00:53:55.747Z,11.13
2018-08-24T00:56:23.850Z,11.50
2018-08-24T00:58:52.004Z,12.20
2018-08-24T01:01:20.131Z,12.00
2018-08-24T01:03:48.417Z,10.37
2018-08-24T01:06:20.771Z,10.63
2018-08-24T01:08:48.888Z,11.67
2018-08-24T01:11:16.986Z,11.00
2018-08-24T01:13:45.127Z,10.43
2018-08-24T01:17:20.259Z,10.20
2018-08-24T01:19:48.434Z,11.30
2018-08-24T01:22:16.846Z,10.87
2018-08-24T01:24:44.994Z,10.40
2018-08-24T01:27:13.109Z,10.30
2018-08-24T01:29:42.381Z,9.73
2018-08-24T01:32:10.483Z,9.77
2018-08-24T01:34:38.931Z,9.53
2018-08-24T01:37:07.038Z,10.90
2018-08-24T01:39:35.160Z,10.37
2018-08-24T01:42:03.258Z,10.70
2018-08-24T01:44:31.362Z,9.30
2018-08-24T01:46:59.466Z,6.87
2018-08-24T01:49:27.575Z,5.97
2018-08-24T01:51:55.683Z,5.90
2018-08-24T01:54:23.780Z,5.87
2018-08-24T01:56:51.867Z,4.80
2018-08-24T01:59:19.989Z,4.97
2018-08-24T02:01:48.103Z,5.43
2018-08-24T02:04:16.211Z,4.80
2018-08-24T02:06:44.318Z,5.57
2018-08-24T02:09:13.258Z,4.83
2018-08-24T02:11:41.371Z,4.83
2018-08-24T02:14:15.099Z,3.90
2018-08-24T02:16:43.154Z,2.80
2018-08-24T02:19:13.418Z,2.73
2018-08-24T02:21:46.945Z,2.40
2018-08-24T02:24:15.107Z,2.00
2018-08-24T02:26:44.186Z,2.10
2018-08-24T02:29:12.314Z,1.90
2018-08-24T02:31:45.682Z,2.27
2018-08-24T02:34:13.932Z,2.10
2018-08-24T02:36:42.193Z,1.73
2018-08-24T02:39:13.162Z,2.47
2018-08-24T02:41:41.724Z,1.60
2018-08-24T02:44:10.302Z,2.33
2018-08-24T02:46:39.195Z,1.83
2018-08-24T02:49:07.306Z,2.20
2018-08-24T02:51:35.406Z,2.10
2018-08-24T02:54:03.500Z,2.20
2018-08-24T02:56:31.676Z,2.50
2018-08-24T02:58:59.798Z,2.47
2018-08-24T03:01:27.918Z,2.50
2018-08-24T03:03:56.030Z,2.23
2018-08-24T03:06:24.130Z,2.43
2018-08-24T03:08:52.239Z,1.83
2018-08-24T03:11:20.369Z,1.80
2018-08-24T03:13:48.483Z,2.60
2018-08-24T03:16:16.628Z,1.80
2018-08-24T03:18:44.679Z,2.30
2018-08-24T03:21:12.785Z,2.70
2018-08-24T03:23:40.912Z,3.07
2018-08-24T03:26:09.014Z,3.50
2018-08-24T03:28:37.123Z,3.80
2018-08-24T03:31:05.233Z,3.90
2018-08-24T03:33:33.372Z,4.27
2018-08-24T03:36:01.458Z,3.80
2018-08-24T03:38:29.558Z,3.80
2018-08-24T03:40:57.662Z,3.90
2018-08-24T03:43:25.762Z,4.10
2018-08-24T03:45:53.951Z,4.57
2018-08-24T03:48:21.996Z,3.90
2018-08-24T03:50:50.094Z,4.13
2018-08-24T03:53:18.290Z,3.60
2018-08-24T03:55:46.356Z,3.87
2018-08-24T03:58:14.458Z,5.10
2018-08-24T04:00:42.619Z,3.83
2018-08-24T04:03:10.728Z,4.10
2018-08-24T04:05:38.841Z,4.60
2018-08-24T04:08:06.944Z,4.60
2018-08-24T04:10:35.050Z,3.77
2018-08-24T04:13:03.170Z,3.87
2018-08-24T04:15:31.269Z,4.67
2018-08-24T04:17:59.371Z,4.37
2018-08-24T04:20:27.479Z,4.37
2018-08-24T04:22:55.574Z,4.40
2018-08-24T04:25:23.687Z,5.00
2018-08-24T04:27:51.819Z,4.30
2018-08-24T04:30:19.922Z,4.97
2018-08-24T04:32:48.028Z,4.27
2018-08-24T04:35:16.123Z,4.30
2018-08-24T04:37:59.735Z,4.30
2018-08-24T04:40:28.055Z,4.13
2018-08-24T04:42:55.980Z,4.40
2018-08-24T04:45:24.095Z,4.33
2018-08-24T04:47:52.186Z,4.50
2018-08-24T04:50:20.508Z,3.87
2018-08-24T04:52:48.658Z,4.60
2018-08-24T04:55:16.766Z,4.60
2018-08-24T04:57:44.874Z,3.73
2018-08-24T05:00:13.017Z,4.30
2018-08-24T05:02:41.086Z,4.97
2018-08-24T05:05:09.786Z,4.10
2018-08-24T05:07:38.002Z,4.50
2018-08-24T05:10:06.200Z,3.70
2018-08-24T05:12:34.323Z,3.23
2018-08-24T05:15:02.446Z,3.80
2018-08-24T05:17:30.560Z,3.93
2018-08-24T05:19:58.667Z,3.30
2018-08-24T05:22:26.783Z,3.30
2018-08-24T05:24:55.011Z,3.00
2018-08-24T05:27:23.027Z,3.00
2018-08-24T05:29:51.118Z,2.77
2018-08-24T05:32:20.150Z,3.00
2018-08-24T05:34:48.290Z,3.00
2018-08-24T05:37:16.381Z,3.13
2018-08-24T05:39:44.518Z,3.20
2018-08-24T05:42:12.725Z,2.90
2018-08-24T05:44:40.863Z,3.47
2018-08-24T05:47:08.970Z,3.47
2018-08-24T05:49:37.080Z,3.73
2018-08-24T05:52:05.167Z,2.87
2018-08-24T05:54:33.284Z,3.23
2018-08-24T05:57:01.544Z,3.10
2018-08-24T05:59:29.638Z,3.80
2018-08-24T06:01:57.737Z,2.80
2018-08-24T06:04:25.829Z,2.37
2018-08-24T06:06:55.176Z,2.87
2018-08-24T06:09:23.378Z,3.20
2018-08-24T06:11:51.520Z,3.20
2018-08-24T06:14:19.639Z,3.60
2018-08-24T06:16:53.264Z,3.47
2018-08-24T06:19:21.667Z,2.83
2018-08-24T06:21:50.411Z,3.77
2018-08-24T06:24:18.634Z,3.20
2018-08-24T06:26:46.768Z,4.60
2018-08-24T06:29:14.876Z,3.70
2018-08-24T06:31:42.973Z,2.50
2018-08-24T06:34:11.065Z,2.83
2018-08-24T06:36:39.162Z,2.97
2018-08-24T06:39:14.166Z,3.00
2018-08-24T06:41:43.249Z,3.70
2018-08-24T06:44:11.281Z,3.57
2018-08-24T06:46:39.387Z,3.80
2018-08-24T06:49:07.577Z,3.63
2018-08-24T06:51:35.782Z,4.60
2018-08-24T06:54:03.934Z,3.30
2018-08-24T06:56:32.022Z,3.77
2018-08-24T06:59:00.142Z,3.57
2018-08-24T07:01:28.246Z,3.93
2018-08-24T07:03:56.350Z,4.13
2018-08-24T07:06:24.462Z,3.20
2018-08-24T07:08:52.570Z,3.83
2018-08-24T07:11:20.690Z,3.50
2018-08-24T07:13:49.927Z,3.17
2018-08-24T07:16:18.074Z,3.30
2018-08-24T07:18:46.194Z,3.20
2018-08-24T07:21:14.344Z,3.40
2018-08-24T07:23:42.446Z,2.90
2018-08-24T07:26:10.675Z,2.50
2018-08-24T07:28:38.898Z,3.03
2018-08-24T07:31:07.242Z,3.93
2018-08-24T07:33:35.344Z,3.10
2018-08-24T07:36:06.583Z,3.07
2018-08-24T07:38:34.694Z,3.03
2018-08-24T07:41:02.808Z,3.67
2018-08-24T07:43:30.967Z,4.50
2018-08-24T07:45:59.159Z,3.57
2018-08-24T07:48:27.289Z,3.77
2018-08-24T07:50:55.430Z,3.80
2018-08-24T07:53:23.523Z,3.93
2018-08-24T07:55:51.950Z,3.37
2018-08-24T07:58:20.058Z,3.90
2018-08-24T08:00:48.160Z,3.40
2018-08-24T08:03:16.250Z,4.00
2018-08-24T08:05:44.340Z,3.60
2018-08-24T08:08:12.435Z,3.63
2018-08-24T08:10:41.475Z,3.30
2018-08-24T08:13:10.986Z,3.63
2018-08-24T08:15:39.190Z,3.47
2018-08-24T08:18:07.318Z,4.43
2018-08-24T08:20:35.394Z,4.47
2018-08-24T08:23:03.502Z,4.87
2018-08-24T08:25:31.602Z,4.87
2018-08-24T08:27:59.723Z,5.67
2018-08-24T08:30:27.818Z,5.57
2018-08-24T08:32:55.913Z,6.63
2018-08-24T08:35:24.010Z,6.73
2018-08-24T08:37:52.098Z,5.60
2018-08-24T08:40:20.206Z,5.60
2018-08-24T08:42:48.324Z,6.60
2018-08-24T08:45:16.463Z,6.40
2018-08-24T08:47:44.519Z,6.30
2018-08-24T08:50:12.610Z,5.63
2018-08-24T08:52:40.707Z,6.30
2018-08-24T08:55:08.806Z,7.50
2018-08-24T08:57:36.908Z,7.60
2018-08-24T09:00:05.249Z,7.03
2018-08-24T09:02:33.363Z,7.43
2018-08-24T09:05:01.478Z,6.77
2018-08-24T09:07:29.586Z,7.60
2018-08-24T09:09:57.693Z,7.70
2018-08-24T09:12:25.804Z,8.43
2018-08-24T09:14:53.920Z,8.50
2018-08-24T09:17:27.336Z,9.03
2018-08-24T09:20:00.778Z,7.70
2018-08-24T09:22:34.092Z,8.60
2018-08-24T09:25:08.624Z,6.93
2018-08-24T09:27:40.343Z,7.53
2018-08-24T09:30:08.614Z,8.00
2018-08-24T09:32:36.830Z,6.70
2018-08-24T09:35:04.914Z,7.67
2018-08-24T09:37:36.323Z,6.33
2018-08-24T09:40:04.820Z,6.27
2018-08-24T09:42:32.923Z,6.03
2018-08-24T09:45:01.030Z,6.10
2018-08-24T09:47:34.510Z,5.80
2018-08-24T09:50:07.956Z,6.30
2018-08-24T09:52:36.073Z,7.07
2018-08-24T09:55:04.212Z,6.90
2018-08-24T09:57:32.323Z,7.17
2018-08-24T10:00:00.421Z,6.23
2018-08-24T10:02:33.967Z,6.23
2018-08-24T10:05:07.467Z,7.37
2018-08-24T10:07:40.936Z,6.30
2018-08-24T10:10:09.063Z,7.83
2018-08-24T10:12:38.208Z,5.67
2018-08-24T10:15:07.974Z,7.10
2018-08-24T10:17:36.083Z,6.47
2018-08-24T10:20:04.419Z,5.30
2018-08-24T10:22:33.228Z,5.47
2018-08-24T10:25:01.600Z,5.87
2018-08-24T10:27:29.710Z,5.80
2018-08-24T10:29:57.829Z,5.60
2018-08-24T10:32:26.191Z,5.17
2018-08-24T10:34:54.491Z,5.53
2018-08-24T10:37:23.771Z,4.47
2018-08-24T10:39:51.982Z,5.40
2018-08-24T10:42:20.090Z,5.30
2018-08-24T10:44:48.186Z,5.20
2018-08-24T10:47:16.312Z,5.40
2018-08-24T10:49:44.407Z,5.40
2018-08-24T10:52:12.506Z,5.33
2018-08-24T10:54:40.653Z,5.37
2018-08-24T10:57:08.726Z,5.40
2018-08-24T10:59:36.794Z,7.57
2018-08-24T11:02:04.930Z,9.67
2018-08-24T11:04:33.012Z,9.03
2018-08-24T11:07:01.129Z,10.77
2018-08-24T11:09:29.230Z,10.57
2018-08-24T11:11:57.350Z,8.63
2018-08-24T11:14:25.474Z,9.07
2018-08-24T11:16:53.658Z,10.07
2018-08-24T11:19:21.793Z,11.20
2018-08-24T11:21:49.897Z,11.23
2018-08-24T11:24:18.030Z,10.67
2018-08-24T11:26:46.267Z,11.73
2018-08-24T11:29:14.911Z,11.43
2018-08-24T11:31:43.026Z,9.53
2018-08-24T11:34:11.122Z,8.43
2018-08-24T11:36:39.282Z,9.50
2018-08-24T11:39:08.114Z,8.70
2018-08-24T11:41:36.336Z,7.70
2018-08-24T11:44:04.422Z,6.83
2018-08-24T11:46:32.556Z,7.83
2018-08-24T11:49:00.674Z,6.03
2018-08-24T11:51:28.788Z,6.07
2018-08-24T11:53:56.946Z,6.00
2018-08-24T11:56:25.001Z,6.77
2018-08-24T11:58:53.165Z,5.20
2018-08-24T12:01:21.291Z,6.27
2018-08-24T12:03:49.410Z,4.67
2018-08-24T12:06:17.507Z,5.23
2018-08-24T12:08:45.670Z,6.13
2018-08-24T12:11:14.009Z,4.80
2018-08-24T12:13:43.105Z,4.33
2018-08-24T12:16:11.262Z,5.40
2018-08-24T12:18:39.576Z,4.23
2018-08-24T12:21:11.336Z,4.90
2018-08-24T12:23:40.347Z,5.03
2018-08-24T12:26:08.528Z,4.90
2018-08-24T12:28:36.745Z,4.47
2018-08-24T12:31:05.036Z,4.03
2018-08-24T12:33:33.010Z,3.60
2018-08-24T12:36:01.114Z,3.40
2018-08-24T12:38:29.206Z,3.70
2018-08-24T12:40:57.309Z,3.97
2018-08-24T12:43:25.490Z,4.13
2018-08-24T12:45:53.514Z,4.13
2018-08-24T12:48:21.614Z,4.20
2018-08-24T12:50:49.706Z,4.07
2018-08-24T12:53:17.812Z,4.00
2018-08-24T12:55:45.946Z,4.30
2018-08-24T12:58:14.053Z,3.60
2018-08-24T13:00:42.150Z,4.60
2018-08-24T13:03:10.256Z,3.60
2018-08-24T13:05:38.350Z,4.07
2018-08-24T13:08:06.448Z,4.00
2018-08-24T13:10:34.543Z,4.20
2018-08-24T13:13:02.654Z,5.20
2018-08-24T13:15:30.754Z,4.57
2018-08-24T13:17:59.006Z,4.30
2018-08-24T13:20:27.225Z,3.53
2018-08-24T13:22:55.593Z,3.97
2018-08-24T13:25:23.946Z,3.13
2018-08-24T13:27:52.527Z,3.57
2018-08-24T13:30:21.032Z,4.20
2018-08-24T13:32:49.226Z,4.30
2018-08-24T13:35:22.142Z,3.90
2018-08-24T13:37:50.282Z,3.73
2018-08-24T13:40:18.387Z,3.43
2018-08-24T13:42:46.602Z,3.67
2018-08-24T13:45:14.712Z,4.70
2018-08-24T13:47:42.811Z,3.70
2018-08-24T13:50:10.916Z,4.40
2018-08-24T13:52:39.010Z,4.07
2018-08-24T13:55:08.074Z,3.27
2018-08-24T13:57:37.489Z,3.23
2018-08-24T14:00:05.936Z,2.80
2018-08-24T14:02:35.042Z,2.77
2018-08-24T14:05:03.879Z,2.90
2018-08-24T14:07:32.479Z,2.40
2018-08-24T14:10:00.658Z,2.87
2018-08-24T14:12:31.252Z,3.03
2018-08-24T14:14:59.458Z,3.40
2018-08-24T14:17:28.371Z,2.40
2018-08-24T14:19:56.548Z,2.80
2018-08-24T14:22:24.642Z,2.50
2018-08-24T14:24:52.751Z,2.37
2018-08-24T14:27:20.849Z,2.10
2018-08-24T14:29:48.987Z,1.90
2018-08-24T14:32:17.086Z,2.17
2018-08-24T14:34:45.333Z,1.97
2018-08-24T14:37:13.469Z,2.40
2018-08-24T14:39:41.566Z,2.17
2018-08-24T14:42:09.662Z,2.00
2018-08-24T14:44:37.771Z,1.93
2018-08-24T14:47:05.883Z,2.10
2018-08-24T14:49:34.016Z,1.80
2018-08-24T14:52:02.118Z,2.13
2018-08-24T14:54:30.228Z,1.93
2018-08-24T14:56:58.330Z,1.70
2018-08-24T14:59:26.441Z,2.40
2018-08-24T15:01:54.544Z,2.53
2018-08-24T15:04:22.694Z,1.90
2018-08-24T15:06:50.775Z,1.70
2018-08-24T15:09:18.910Z,1.70
2018-08-24T15:11:47.058Z,1.53
2018-08-24T15:14:15.162Z,1.90
2018-08-24T15:16:43.266Z,1.67
2018-08-24T15:19:11.399Z,1.40
2018-08-24T15:21:39.507Z,1.53
2018-08-24T15:24:08.258Z,1.60
2018-08-24T15:26:36.365Z,2.10
2018-08-24T15:29:04.452Z,1.70
2018-08-24T15:31:32.555Z,2.00
2018-08-24T15:34:00.659Z,2.23
2018-08-24T15:36:28.761Z,2.20
2018-08-24T15:38:56.863Z,2.30
2018-08-24T15:41:24.963Z,1.87
2018-08-24T15:43:53.071Z,2.07
2018-08-24T15:46:21.225Z,2.93
2018-08-24T15:48:49.491Z,2.10
2018-08-24T15:51:18.604Z,2.10
2018-08-24T15:53:51.223Z,2.33
2018-08-24T15:56:22.982Z,2.13
2018-08-24T15:58:57.575Z,2.57
2018-08-24T16:01:31.053Z,2.00
2018-08-24T16:03:59.744Z,2.33
2018-08-24T16:06:28.170Z,1.83
2018-08-24T16:09:01.469Z,2.73
2018-08-24T16:16:05.235Z,2.27
2018-08-24T16:18:33.320Z,2.60
2018-08-24T16:21:01.413Z,1.63
2018-08-24T16:23:29.510Z,2.20
2018-08-24T16:25:57.613Z,2.70
2018-08-24T16:28:25.712Z,2.03
2018-08-24T16:30:53.870Z,2.17
2018-08-24T16:33:21.969Z,2.33
2018-08-24T16:35:50.075Z,2.30
2018-08-24T16:38:18.207Z,2.23
2018-08-24T16:40:46.350Z,1.87
2018-08-24T16:43:32.376Z,2.07
2018-08-24T16:46:00.482Z,2.17
2018-08-24T16:48:28.601Z,1.80
2018-08-24T16:50:57.562Z,1.70
2018-08-24T16:53:25.692Z,2.77
2018-08-24T16:55:53.793Z,2.80
2018-08-24T16:58:22.529Z,2.70
2018-08-24T17:01:08.736Z,2.87
2018-08-24T17:03:41.539Z,1.83
2018-08-24T17:06:12.054Z,4.47
2018-08-24T17:08:40.679Z,1.50
2018-08-24T17:11:09.054Z,2.83
2018-08-24T17:13:44.888Z,2.87
2018-08-24T17:16:19.846Z,1.43
2018-08-24T17:19:11.690Z,1.43
2018-08-24T17:21:43.560Z,1.70
2018-08-24T17:24:13.255Z,1.80
2018-08-24T17:26:47.492Z,4.57
2018-08-24T17:29:45.615Z,1.80
2018-08-24T17:32:28.407Z,1.57
2018-08-24T17:34:57.465Z,1.50
2018-08-24T17:37:26.460Z,1.67
2018-08-24T17:50:15.180Z,1.80
2018-08-24T17:52:43.307Z,1.50
2018-08-24T17:55:11.456Z,2.97
2018-08-24T17:57:39.570Z,1.80
2018-08-24T18:00:07.678Z,1.47
2018-08-24T18:02:35.815Z,1.90
2018-08-24T18:05:04.024Z,1.87
2018-08-24T18:07:32.127Z,1.10
2018-08-24T18:10:00.249Z,1.97
2018-08-24T18:12:28.418Z,1.63
2018-08-24T18:14:56.695Z,1.83
2018-08-24T18:17:24.842Z,1.80
2018-08-24T18:19:52.993Z,2.20
2018-08-24T18:22:21.109Z,2.00
2018-08-24T18:24:49.238Z,1.57
2018-08-24T18:27:17.388Z,1.37
2018-08-24T18:29:45.600Z,1.30
2018-08-24T18:32:13.675Z,2.07
2018-08-24T18:34:41.830Z,1.90
2018-08-24T18:37:09.994Z,1.90
2018-08-24T18:39:38.071Z,1.60
2018-08-24T18:42:06.202Z,1.60
2018-08-24T18:44:34.337Z,1.43
2018-08-24T18:47:02.462Z,1.60
2018-08-24T18:49:30.582Z,1.90
2018-08-24T18:51:58.723Z,1.70
2018-08-24T18:54:26.856Z,1.73
2018-08-24T18:56:54.987Z,2.00
2018-08-24T18:59:23.153Z,1.90
2018-08-24T19:01:51.380Z,2.00
2018-08-24T19:04:19.535Z,2.03
2018-08-24T19:06:47.743Z,1.80
2018-08-24T19:09:15.895Z,1.80
2018-08-24T19:11:49.600Z,1.47
2018-08-24T19:14:17.731Z,1.70
2018-08-24T19:16:45.858Z,1.70
2018-08-24T19:19:19.537Z,1.37
2018-08-24T19:21:48.913Z,1.40
2018-08-24T19:24:17.058Z,1.50
2018-08-24T19:26:45.278Z,1.60
2018-08-24T19:29:18.791Z,1.83
2018-08-24T19:31:46.965Z,1.80
2018-08-24T19:34:15.053Z,1.53
2018-08-24T19:36:43.214Z,2.27
2018-08-24T19:39:13.183Z,3.00
2018-08-24T19:41:46.805Z,2.30
2018-08-24T19:44:15.020Z,1.90
2018-08-24T19:46:43.232Z,1.53
2018-08-24T19:49:14.995Z,1.63
2018-08-24T19:51:43.371Z,1.50
2018-08-24T19:54:12.048Z,1.83
2018-08-24T19:56:40.193Z,1.77
2018-08-24T19:59:09.923Z,2.17
2018-08-24T20:01:42.029Z,1.83
2018-08-24T20:04:10.204Z,1.60
2018-08-24T20:06:43.738Z,1.63
2018-08-24T20:09:17.594Z,1.97
2018-08-24T20:11:47.602Z,1.70
2018-08-24T20:14:15.822Z,1.70
2018-08-24T20:16:49.424Z,1.70
2018-08-24T20:19:17.549Z,1.90
2018-08-24T20:21:45.703Z,1.60
2018-08-24T20:24:13.841Z,2.00
2018-08-24T20:26:41.955Z,2.10
2018-08-24T20:29:10.127Z,1.80
2018-08-24T20:31:38.259Z,2.23
2018-08-24T20:34:06.414Z,1.80
2018-08-24T20:36:34.551Z,1.90
2018-08-24T20:39:02.771Z,2.97
2018-08-24T20:41:30.895Z,1.93
2018-08-24T20:43:59.022Z,2.27
2018-08-24T20:46:27.158Z,1.90
2018-08-24T20:48:55.296Z,2.13
2018-08-24T20:51:23.431Z,1.60
2018-08-24T20:53:51.581Z,2.47
2018-08-24T20:56:19.760Z,1.57
2018-08-24T20:58:47.983Z,2.53
2018-08-24T21:01:21.806Z,3.40
2018-08-24T21:03:49.942Z,1.77
2018-08-24T21:06:26.712Z,2.30
2018-08-24T21:08:54.842Z,2.30
2018-08-24T21:11:22.990Z,1.80
2018-08-24T21:13:51.173Z,2.33
2018-08-24T21:16:19.331Z,1.97
2018-08-24T21:18:47.524Z,2.05
2018-08-24T21:21:15.643Z,2.20
2018-08-24T21:23:43.930Z,1.83
2018-08-24T21:26:12.042Z,2.47
2018-08-24T21:28:41.230Z,2.17
2018-08-24T21:31:09.372Z,2.20
2018-08-24T21:33:37.486Z,2.57
2018-08-24T21:36:05.619Z,2.07
2018-08-24T21:38:33.771Z,2.77
2018-08-24T21:41:02.937Z,2.17
2018-08-24T21:43:31.061Z,2.10
2018-08-24T21:45:59.214Z,2.30
2018-08-24T21:48:27.366Z,2.57
2018-08-24T21:50:55.498Z,2.27
2018-08-24T21:53:23.662Z,2.50
2018-08-24T21:55:52.971Z,2.27
2018-08-24T21:58:21.114Z,2.60
2018-08-24T22:00:49.259Z,2.37
2018-08-24T22:03:17.401Z,3.47
2018-08-24T22:05:45.592Z,2.20
2018-08-24T22:08:13.758Z,2.80
2018-08-24T22:10:41.914Z,3.12
2018-08-24T22:13:10.078Z,2.72
2018-08-24T22:15:38.244Z,2.60
2018-08-24T22:18:06.388Z,3.00
2018-08-24T22:20:34.567Z,2.70
2018-08-24T22:23:02.711Z,2.23
2018-08-24T22:25:30.942Z,2.50
2018-08-24T22:27:59.106Z,2.50
2018-08-24T22:30:28.332Z,2.47
2018-08-24T22:32:56.486Z,2.67
2018-08-24T22:35:24.668Z,1.80
2018-08-24T22:37:52.818Z,3.05
2018-08-24T22:40:20.946Z,2.12
2018-08-24T22:42:49.097Z,2.40
2018-08-24T22:45:17.289Z,2.50
2018-08-24T22:47:45.454Z,2.87
2018-08-24T22:50:14.207Z,1.93
2018-08-24T22:52:42.339Z,2.40
2018-08-24T22:55:10.775Z,2.30
2018-08-24T22:57:38.920Z,2.33
2018-08-24T23:00:07.087Z,2.70
2018-08-24T23:02:35.230Z,2.37
2018-08-24T23:05:03.366Z,2.10
2018-08-24T23:07:31.490Z,2.17
2018-08-24T23:09:59.667Z,2.40
2018-08-24T23:12:27.798Z,2.37
2018-08-24T23:14:56.306Z,2.62
2018-08-24T23:17:24.435Z,2.20
2018-08-24T23:19:52.694Z,2.07
2018-08-24T23:22:20.861Z,1.80
2018-08-24T23:24:49.012Z,2.30
2018-08-24T23:27:17.296Z,2.37
2018-08-24T23:29:45.450Z,2.60
2018-08-24T23:32:13.582Z,2.58
2018-08-24T23:34:41.755Z,2.50
2018-08-24T23:37:09.871Z,2.00
2018-08-24T23:39:38.010Z,2.40
2018-08-24T23:42:06.299Z,2.57
2018-08-24T23:44:34.453Z,2.40
2018-08-24T23:47:02.712Z,2.23
2018-08-24T23:49:30.894Z,1.97
2018-08-24T23:51:59.023Z,2.50
2018-08-24T23:54:27.198Z,1.83
2018-08-24T23:56:55.359Z,2.90
2018-08-24T23:59:23.503Z,2.43
